Time;durP1;ratioP1;P1;durP2;ratioP2;P2;SDS_P1;SDS_P2;PMS_P1;PMS_P2;Temp;Humidity;BMP_temperature;BMP_pressure;BME280_temperature;BME280_humidity;BME280_pressure;Samples;Min_cycle;Max_cycle;Signal;HPM_P1;HPM_P2
2023/03/23 00:01:40;;;;;;;7.60;5.17;;;10.70;99.90;;;;;;5057294;28;20230;-52
2023/03/23 00:04:08;;;;;;;10.90;6.10;;;10.70;99.90;;;;;;5042142;28;20408;-51
2023/03/23 00:06:36;;;;;;;5.70;5.23;;;10.70;99.90;;;;;;5065144;28;20264;-53
2023/03/23 00:09:05;;;;;;;13.83;5.93;;;10.60;99.90;;;;;;5055414;28;20218;-54
2023/03/23 00:11:33;;;;;;;6.80;5.93;;;10.60;99.90;;;;;;5064305;28;20206;-54
2023/03/23 00:14:01;;;;;;;9.10;6.40;;;10.60;99.90;;;;;;5061249;28;20218;-53
2023/03/23 00:16:31;;;;;;;10.37;6.10;;;10.60;99.90;;;;;;5064846;28;20648;-49
2023/03/23 00:19:00;;;;;;;9.33;7.77;;;10.60;99.90;;;;;;5060377;28;20244;-49
2023/03/23 00:21:34;;;;;;;10.13;6.40;;;10.60;99.90;;;;;;5051321;28;20642;-53
2023/03/23 00:24:04;;;;;;;7.70;6.47;;;10.60;99.90;;;;;;5048750;28;20203;-52
2023/03/23 00:26:33;;;;;;;10.83;6.77;;;10.50;99.90;;;;;;5064498;28;20218;-50
2023/03/23 00:29:01;;;;;;;10.73;7.00;;;10.50;99.90;;;;;;5060983;28;20267;-50
2023/03/23 00:31:31;;;;;;;10.30;7.53;;;10.50;99.90;;;;;;5064828;28;20625;-52
2023/03/23 00:34:00;;;;;;;9.33;7.97;;;10.50;99.90;;;;;;5057608;28;20275;-49
2023/03/23 00:36:29;;;;;;;14.57;8.40;;;10.50;99.90;;;;;;5049960;28;20237;-51
2023/03/23 00:38:57;;;;;;;11.77;8.63;;;10.50;99.90;;;;;;5055998;28;20194;-48
2023/03/23 00:41:26;;;;;;;11.43;8.37;;;10.50;99.90;;;;;;5061908;28;20194;-55
2023/03/23 00:43:54;;;;;;;10.30;8.43;;;10.50;99.90;;;;;;5062639;28;20202;-50
2023/03/23 00:46:21;;;;;;;9.67;8.10;;;10.50;99.90;;;;;;5063174;28;20225;-52
2023/03/23 00:48:48;;;;;;;10.83;9.00;;;10.40;99.90;;;;;;5060665;28;20691;-49
2023/03/23 00:51:15;;;;;;;10.13;9.03;;;10.50;99.90;;;;;;5047921;28;21511;-52
2023/03/23 00:53:43;;;;;;;10.13;9.00;;;10.40;99.90;;;;;;5060647;28;20252;-52
2023/03/23 00:56:10;;;;;;;12.70;9.60;;;10.50;99.90;;;;;;5054295;28;20222;-55
2023/03/23 00:58:37;;;;;;;12.17;9.57;;;10.50;99.90;;;;;;5060414;28;20198;-54
2023/03/23 01:01:04;;;;;;;13.00;9.77;;;10.50;99.90;;;;;;5061348;28;20226;-57
2023/03/23 01:03:31;;;;;;;12.80;9.87;;;10.50;99.90;;;;;;5060610;28;20669;-56
2023/03/23 01:06:05;;;;;;;11.40;9.60;;;10.50;99.90;;;;;;5060372;28;20190;-57
2023/03/23 01:08:36;;;;;;;11.63;9.70;;;10.50;99.90;;;;;;5047679;28;20212;-55
2023/03/23 01:11:07;;;;;;;10.50;9.40;;;10.50;99.90;;;;;;5053198;28;20221;-54
2023/03/23 01:13:34;;;;;;;11.00;9.87;;;10.50;99.90;;;;;;5062330;28;20293;-54
2023/03/23 01:16:01;;;;;;;11.57;9.67;;;10.50;99.90;;;;;;5059810;28;20221;-52
2023/03/23 01:18:28;;;;;;;11.30;10.10;;;10.50;99.90;;;;;;5052814;28;20191;-50
2023/03/23 01:20:55;;;;;;;14.23;10.07;;;10.50;99.90;;;;;;5063818;28;20202;-56
2023/03/23 01:23:22;;;;;;;12.47;9.87;;;10.50;99.90;;;;;;5047394;28;20241;-49
2023/03/23 01:25:49;;;;;;;10.10;8.90;;;10.50;99.90;;;;;;5062252;28;20202;-56
2023/03/23 01:28:17;;;;;;;10.13;9.13;;;10.50;99.90;;;;;;5056741;28;20276;-53
2023/03/23 01:30:44;;;;;;;12.30;9.03;;;10.50;99.90;;;;;;5061803;28;20277;-59
2023/03/23 01:33:11;;;;;;;11.43;9.00;;;10.50;99.90;;;;;;5063498;28;20222;-55
2023/03/23 01:35:39;;;;;;;10.90;9.80;;;10.50;99.90;;;;;;5061200;28;20206;-58
2023/03/23 01:38:05;;;;;;;10.30;9.27;;;10.50;99.90;;;;;;5060315;28;20305;-57
2023/03/23 01:40:32;;;;;;;11.70;9.80;;;10.50;99.90;;;;;;5075483;28;20203;-58
2023/03/23 01:42:59;;;;;;;11.93;10.27;;;10.50;99.90;;;;;;5055941;28;20202;-56
2023/03/23 01:45:34;;;;;;;11.73;9.87;;;10.50;99.90;;;;;;5058135;28;20206;-49
2023/03/23 01:48:17;;;;;;;11.53;10.43;;;10.60;99.90;;;;;;5063648;28;20270;-58
2023/03/23 01:50:52;;;;;;;10.33;9.10;;;10.50;99.90;;;;;;5058265;28;20186;-56
2023/03/23 01:53:20;;;;;;;11.13;9.80;;;10.50;99.90;;;;;;5059367;28;20206;-52
2023/03/23 01:55:53;;;;;;;12.83;10.17;;;10.50;99.90;;;;;;5047229;28;20195;-59
2023/03/23 01:58:26;;;;;;;12.57;9.50;;;10.60;99.90;;;;;;5052666;28;20196;-55
2023/03/23 02:01:00;;;;;;;13.33;10.43;;;10.60;99.90;;;;;;5061719;28;20213;-56
2023/03/23 02:03:30;;;;;;;12.87;10.50;;;10.60;99.90;;;;;;5058232;28;20209;-52
2023/03/23 02:05:59;;;;;;;12.10;10.67;;;10.60;99.90;;;;;;5061649;28;20207;-57
2023/03/23 02:08:36;;;;;;;14.70;11.47;;;10.60;99.90;;;;;;5057212;28;20190;-54
2023/03/23 02:11:13;;;;;;;14.93;10.93;;;10.60;99.90;;;;;;5048198;28;20214;-53
2023/03/23 02:13:40;;;;;;;12.97;10.67;;;10.60;99.90;;;;;;5049019;28;20934;-54
2023/03/23 02:16:14;;;;;;;12.70;11.40;;;10.60;99.90;;;;;;5061948;28;20194;-51
2023/03/23 02:18:51;;;;;;;14.87;11.13;;;10.60;99.90;;;;;;5044695;28;20301;-54
2023/03/23 02:21:45;;;;;;;12.67;11.37;;;10.60;99.90;;;;;;5061321;28;20545;-51
2023/03/23 02:24:35;;;;;;;13.20;9.43;;;10.60;99.90;;;;;;5060960;28;20773;-54
2023/03/23 02:27:08;;;;;;;11.30;10.10;;;10.60;99.90;;;;;;5047718;28;20601;-52
2023/03/23 02:29:57;;;;;;;16.43;11.90;;;10.60;99.90;;;;;;5087091;28;20473;-53
2023/03/23 02:32:55;;;;;;;12.57;10.53;;;10.60;99.90;;;;;;5058777;28;20290;-49
2023/03/23 02:35:29;;;;;;;12.33;10.17;;;10.60;99.90;;;;;;5088439;28;20218;-51
2023/03/23 02:38:00;;;;;;;11.03;9.67;;;10.60;99.90;;;;;;5060358;28;20254;-52
2023/03/23 02:40:33;;;;;;;11.70;10.47;;;10.60;99.90;;;;;;5045462;28;20266;-48
2023/03/23 02:43:01;;;;;;;14.37;10.10;;;10.60;99.90;;;;;;5056833;28;20206;-50
2023/03/23 02:45:31;;;;;;;11.50;9.33;;;10.60;99.90;;;;;;5050276;28;20206;-55
2023/03/23 02:48:02;;;;;;;10.67;9.50;;;10.60;99.90;;;;;;5062743;28;20218;-57
2023/03/23 02:50:33;;;;;;;11.67;9.77;;;10.60;99.90;;;;;;5057936;28;20215;-55
2023/03/23 02:53:08;;;;;;;11.93;9.80;;;10.60;99.90;;;;;;5061059;28;20293;-50
2023/03/23 02:55:41;;;;;;;11.03;9.90;;;10.60;99.90;;;;;;5057228;28;20282;-54
2023/03/23 02:58:10;;;;;;;13.43;9.93;;;10.60;99.90;;;;;;5046835;28;20222;-51
2023/03/23 03:00:38;;;;;;;11.30;9.90;;;10.60;99.90;;;;;;5052677;28;20193;-53
2023/03/23 03:03:06;;;;;;;11.20;9.73;;;10.60;99.90;;;;;;5062524;28;20684;-54
2023/03/23 03:05:41;;;;;;;10.90;9.80;;;10.60;99.90;;;;;;5058246;28;20208;-53
2023/03/23 03:08:17;;;;;;;10.73;9.03;;;10.60;99.90;;;;;;5088560;28;20253;-54
2023/03/23 03:10:51;;;;;;;10.17;9.17;;;10.60;99.90;;;;;;5059204;28;21099;-55
2023/03/23 03:13:28;;;;;;;10.27;9.20;;;10.60;99.90;;;;;;5070848;28;20211;-50
2023/03/23 03:16:01;;;;;;;11.13;9.67;;;10.60;99.90;;;;;;5055722;28;20605;-56
2023/03/23 03:18:33;;;;;;;12.50;9.83;;;10.60;99.90;;;;;;5060460;28;20218;-51
2023/03/23 03:21:07;;;;;;;10.53;9.50;;;10.60;99.90;;;;;;5059892;28;20574;-55
2023/03/23 03:23:37;;;;;;;11.30;10.03;;;10.60;99.90;;;;;;5059869;28;20191;-55
2023/03/23 03:26:09;;;;;;;11.03;9.33;;;10.60;99.90;;;;;;5065160;28;20579;-51
2023/03/23 03:28:49;;;;;;;10.93;9.70;;;10.70;99.90;;;;;;5059764;28;20214;-53
2023/03/23 03:31:22;;;;;;;12.27;10.10;;;10.70;99.90;;;;;;5052657;28;20215;-53
2023/03/23 03:33:50;;;;;;;11.53;9.80;;;10.60;99.90;;;;;;5058978;28;20256;-52
2023/03/23 03:36:21;;;;;;;10.47;9.37;;;10.60;99.90;;;;;;5062481;28;20803;-57
2023/03/23 03:38:50;;;;;;;11.80;8.77;;;10.60;99.90;;;;;;5064085;28;20210;-56
2023/03/23 03:41:19;;;;;;;11.27;10.10;;;10.60;99.90;;;;;;5061700;28;20197;-56
2023/03/23 03:43:47;;;;;;;11.60;10.50;;;10.60;99.90;;;;;;5083628;28;20218;-56
2023/03/23 03:46:14;;;;;;;10.83;9.60;;;10.60;99.90;;;;;;5055315;28;20223;-55
2023/03/23 03:48:40;;;;;;;10.23;9.20;;;10.60;99.90;;;;;;5064315;28;20287;-55
2023/03/23 03:51:08;;;;;;;12.97;9.73;;;10.70;99.90;;;;;;5063026;28;20209;-51
2023/03/23 03:53:40;;;;;;;10.77;9.80;;;10.70;99.90;;;;;;5064622;28;20205;-55
2023/03/23 03:56:08;;;;;;;11.00;9.90;;;10.70;99.90;;;;;;5060765;28;20736;-55
2023/03/23 03:58:42;;;;;;;11.50;10.17;;;10.70;99.90;;;;;;5077837;28;20232;-55
2023/03/23 04:01:24;;;;;;;11.20;10.13;;;10.70;99.90;;;;;;5060144;28;20704;-57
2023/03/23 04:03:51;;;;;;;13.53;10.87;;;10.70;99.90;;;;;;5058095;28;20199;-52
2023/03/23 04:06:28;;;;;;;13.80;11.23;;;10.70;99.90;;;;;;5057648;28;20218;-53
2023/03/23 04:08:58;;;;;;;12.20;11.00;;;10.80;99.90;;;;;;5064984;28;20195;-53
2023/03/23 04:11:26;;;;;;;13.60;11.20;;;10.80;99.90;;;;;;5089763;28;20187;-57
2023/03/23 04:13:58;;;;;;;11.23;10.03;;;10.80;99.90;;;;;;5046770;28;20191;-51
2023/03/23 04:16:34;;;;;;;11.60;9.40;;;10.80;99.90;;;;;;5080219;28;20233;-54
2023/03/23 04:19:01;;;;;;;11.53;10.33;;;10.80;99.90;;;;;;5081337;28;20222;-50
2023/03/23 04:21:28;;;;;;;10.60;9.50;;;10.80;99.90;;;;;;5059466;28;20211;-57
2023/03/23 04:23:58;;;;;;;10.63;9.63;;;10.90;99.90;;;;;;5061713;28;20289;-48
2023/03/23 04:26:26;;;;;;;10.87;9.90;;;10.90;99.90;;;;;;5061579;28;20287;-55
2023/03/23 04:28:55;;;;;;;11.97;9.33;;;11.00;99.90;;;;;;5055613;28;20198;-50
2023/03/23 04:31:52;;;;;;;11.13;9.93;;;11.00;99.90;;;;;;5061844;28;20206;-54
2023/03/23 04:34:40;;;;;;;13.13;10.47;;;10.90;99.90;;;;;;5054636;28;20680;-56
2023/03/23 04:37:08;;;;;;;15.17;11.20;;;10.90;99.90;;;;;;5052997;28;20222;-52
2023/03/23 04:39:39;;;;;;;13.40;10.60;;;11.00;99.90;;;;;;5059528;28;20673;-52
2023/03/23 04:42:07;;;;;;;17.20;12.37;;;11.00;99.90;;;;;;5063951;28;20560;-50
2023/03/23 04:44:54;;;;;;;11.47;10.27;;;11.00;99.90;;;;;;5049897;28;20229;-52
2023/03/23 04:47:29;;;;;;;12.37;9.73;;;11.00;99.90;;;;;;5061302;28;20218;-56
2023/03/23 04:49:59;;;;;;;11.33;10.13;;;11.00;99.90;;;;;;5087287;28;20199;-52
2023/03/23 04:52:37;;;;;;;12.97;11.50;;;11.00;99.90;;;;;;5058117;28;20213;-51
2023/03/23 04:55:08;;;;;;;12.83;10.63;;;10.90;99.90;;;;;;5058903;28;20210;-54
2023/03/23 04:57:36;;;;;;;14.27;10.47;;;10.90;99.90;;;;;;5061416;28;20242;-53
2023/03/23 05:00:22;;;;;;;13.57;11.07;;;10.90;99.90;;;;;;5041182;28;20255;-53
2023/03/23 05:02:55;;;;;;;11.63;9.73;;;10.90;99.90;;;;;;5059446;28;20245;-53
2023/03/23 05:05:27;;;;;;;10.83;9.77;;;10.90;99.90;;;;;;5062555;28;20740;-52
2023/03/23 05:07:55;;;;;;;11.17;10.07;;;10.90;99.90;;;;;;5049484;28;20222;-54
2023/03/23 05:10:25;;;;;;;11.87;10.27;;;10.90;99.90;;;;;;5061726;28;20290;-57
2023/03/23 05:12:54;;;;;;;14.23;10.83;;;10.80;99.90;;;;;;5053999;28;20272;-53
2023/03/23 05:15:22;;;;;;;14.17;11.13;;;10.90;99.90;;;;;;5049460;28;20202;-54
2023/03/23 05:17:52;;;;;;;13.10;10.80;;;10.80;99.90;;;;;;5061191;28;20808;-53
2023/03/23 05:20:21;;;;;;;14.47;10.77;;;10.90;99.90;;;;;;5057939;28;20195;-50
2023/03/23 05:22:51;;;;;;;13.80;11.40;;;10.90;99.90;;;;;;5054012;28;20587;-55
2023/03/23 05:25:23;;;;;;;11.87;10.47;;;10.90;99.90;;;;;;5055220;28;20297;-52
2023/03/23 05:28:00;;;;;;;12.80;10.53;;;10.90;99.90;;;;;;5060120;28;20279;-57
2023/03/23 05:30:43;;;;;;;10.87;9.87;;;10.90;99.90;;;;;;5046324;28;20590;-57
2023/03/23 05:33:13;;;;;;;12.93;10.83;;;10.90;99.90;;;;;;5065338;28;20243;-50
2023/03/23 05:35:48;;;;;;;14.60;11.17;;;10.90;99.90;;;;;;5058643;28;20280;-54
2023/03/23 05:38:15;;;;;;;12.73;10.87;;;11.00;99.90;;;;;;5054212;28;20305;-52
2023/03/23 05:40:44;;;;;;;12.63;11.40;;;11.00;99.90;;;;;;5056387;28;20231;-52
2023/03/23 05:43:27;;;;;;;11.40;10.23;;;11.00;99.90;;;;;;5060650;28;20713;-50
2023/03/23 05:46:09;;;;;;;11.90;10.80;;;11.00;99.90;;;;;;5061497;28;20626;-55
2023/03/23 05:48:38;;;;;;;13.53;11.77;;;11.00;99.90;;;;;;5043352;28;20225;-53
2023/03/23 05:51:05;;;;;;;15.90;10.70;;;11.00;99.90;;;;;;5061233;28;20187;-55
2023/03/23 05:53:35;;;;;;;20.57;11.87;;;11.00;99.90;;;;;;5052620;28;20194;-54
2023/03/23 05:56:03;;;;;;;14.80;10.00;;;11.00;99.90;;;;;;5057003;28;20211;-55
2023/03/23 05:58:50;;;;;;;13.17;10.30;;;11.00;99.90;;;;;;5062841;28;20225;-56
2023/03/23 06:01:17;;;;;;;16.23;11.17;;;11.00;99.90;;;;;;5052482;28;20214;-56
2023/03/23 06:03:44;;;;;;;12.27;9.27;;;11.00;99.90;;;;;;5049474;28;20554;-54
2023/03/23 06:06:19;;;;;;;14.97;9.33;;;11.00;99.90;;;;;;5091848;28;20210;-56
2023/03/23 06:08:51;;;;;;;11.53;8.90;;;11.00;99.90;;;;;;5082967;28;20298;-50
2023/03/23 06:11:25;;;;;;;11.33;9.07;;;11.00;99.90;;;;;;5056143;28;20668;-54
2023/03/23 06:14:10;;;;;;;9.93;9.00;;;10.90;99.90;;;;;;5082293;28;20199;-53
2023/03/23 06:16:37;;;;;;;9.23;8.30;;;11.00;99.90;;;;;;5060394;28;20219;-50
2023/03/23 06:19:08;;;;;;;11.17;8.60;;;10.90;99.90;;;;;;5043644;28;20856;-64
2023/03/23 06:21:40;;;;;;;9.53;8.17;;;10.90;99.90;;;;;;5057496;28;20195;-63
2023/03/23 06:24:22;;;;;;;11.37;8.77;;;10.90;99.90;;;;;;5049965;28;20211;-64
2023/03/23 06:26:49;;;;;;;11.57;8.07;;;10.90;99.90;;;;;;5054546;28;20224;-64
2023/03/23 06:29:20;;;;;;;9.77;7.87;;;10.90;99.90;;;;;;5059630;28;20213;-63
2023/03/23 06:31:56;;;;;;;11.37;8.17;;;10.90;99.90;;;;;;5056804;28;20588;-63
2023/03/23 06:34:24;;;;;;;6.80;6.13;;;10.90;99.90;;;;;;5048430;28;20205;-54
2023/03/23 06:37:25;;;;;;;9.30;7.17;;;10.90;99.90;;;;;;5060045;28;20228;-53
2023/03/23 06:40:03;;;;;;;10.57;8.20;;;11.00;99.90;;;;;;5046909;28;20222;-50
2023/03/23 06:42:37;;;;;;;9.30;6.77;;;11.00;99.90;;;;;;5056132;28;20289;-55
2023/03/23 06:45:28;;;;;;;8.47;6.87;;;11.00;99.90;;;;;;5059535;28;20202;-53
2023/03/23 06:48:19;;;;;;;10.77;6.47;;;11.10;99.90;;;;;;5052813;28;20203;-54
2023/03/23 06:50:47;;;;;;;9.67;6.80;;;11.20;99.90;;;;;;5045550;28;20719;-49
2023/03/23 06:53:17;;;;;;;8.63;6.40;;;11.20;99.90;;;;;;5057594;28;21030;-51
2023/03/23 06:55:45;;;;;;;6.03;5.40;;;11.20;99.90;;;;;;5050007;28;20206;-53
2023/03/23 06:58:12;;;;;;;8.30;6.47;;;11.30;99.90;;;;;;5051558;28;20435;-55
2023/03/23 07:00:41;;;;;;;13.77;6.93;;;11.30;99.90;;;;;;5060251;28;20197;-55
2023/03/23 07:03:10;;;;;;;6.73;5.23;;;11.40;99.90;;;;;;5048446;28;20199;-54
2023/03/23 07:05:39;;;;;;;9.50;5.20;;;11.40;99.90;;;;;;5044315;28;20206;-53
2023/03/23 07:08:06;;;;;;;5.30;4.90;;;11.40;99.90;;;;;;5056699;28;20302;-55
2023/03/23 07:10:37;;;;;;;5.67;5.13;;;11.50;99.90;;;;;;5078055;28;20703;-54
2023/03/23 07:13:05;;;;;;;5.37;4.87;;;11.50;99.90;;;;;;5052685;28;20195;-54
2023/03/23 07:15:43;;;;;;;6.13;4.60;;;11.60;99.90;;;;;;5054002;28;20198;-50
2023/03/23 07:18:11;;;;;;;7.23;5.20;;;11.60;99.90;;;;;;5053588;28;20272;-51
2023/03/23 07:20:43;;;;;;;7.47;4.30;;;11.60;99.90;;;;;;5048505;28;20231;-53
2023/03/23 07:23:11;;;;;;;5.37;4.47;;;11.60;99.90;;;;;;5056336;28;20190;-55
2023/03/23 07:26:01;;;;;;;7.20;4.30;;;11.70;99.90;;;;;;5044029;28;20525;-51
2023/03/23 07:28:34;;;;;;;5.33;4.83;;;11.70;99.90;;;;;;5049570;28;20202;-53
2023/03/23 07:31:09;;;;;;;6.17;5.00;;;11.70;99.90;;;;;;5052817;28;20202;-52
2023/03/23 07:33:37;;;;;;;7.30;5.43;;;11.70;99.90;;;;;;5061380;28;20206;-52
2023/03/23 07:36:06;;;;;;;5.83;4.97;;;11.80;99.90;;;;;;5041393;28;20298;-55
2023/03/23 07:38:34;;;;;;;4.73;4.17;;;11.80;99.90;;;;;;5060196;28;20305;-52
2023/03/23 07:41:01;;;;;;;4.93;4.47;;;11.90;99.90;;;;;;5051172;28;20203;-52
2023/03/23 07:43:28;;;;;;;9.53;4.47;;;11.90;99.90;;;;;;5054924;28;20205;-52
2023/03/23 07:46:18;;;;;;;11.73;4.97;;;11.80;99.90;;;;;;5054032;28;20467;-55
2023/03/23 07:49:18;;;;;;;4.50;4.10;;;11.80;99.90;;;;;;5048691;28;20199;-53
2023/03/23 07:51:53;;;;;;;8.73;4.73;;;11.70;99.90;;;;;;5037532;28;20316;-54
2023/03/23 07:54:20;;;;;;;6.87;4.33;;;11.60;99.90;;;;;;5050386;28;20293;-53
2023/03/23 07:56:55;;;;;;;4.57;4.20;;;11.50;99.90;;;;;;5049495;28;20274;-54
2023/03/23 07:59:26;;;;;;;8.17;5.00;;;11.40;99.90;;;;;;5052736;28;20225;-54
2023/03/23 08:01:57;;;;;;;5.43;4.87;;;11.40;99.90;;;;;;5052644;28;20291;-53
2023/03/23 08:04:36;;;;;;;7.47;4.00;;;11.30;99.90;;;;;;5080165;28;20203;-53
2023/03/23 08:07:21;;;;;;;5.37;3.53;;;11.20;99.90;;;;;;5054422;28;20356;-54
2023/03/23 08:10:00;;;;;;;4.93;1.93;;;11.10;99.90;;;;;;5057245;28;20202;-53
2023/03/23 08:12:56;;;;;;;2.70;1.50;;;10.90;99.90;;;;;;5054381;28;20207;-51
2023/03/23 08:15:45;;;;;;;1.83;0.83;;;10.60;99.90;;;;;;5056516;28;20828;-53
2023/03/23 08:18:38;;;;;;;0.60;0.60;;;10.40;99.90;;;;;;5054475;28;20215;-50
2023/03/23 08:21:17;;;;;;;2.70;0.50;;;10.30;99.90;;;;;;5058732;28;20195;-53
2023/03/23 08:23:58;;;;;;;1.33;0.67;;;10.20;99.90;;;;;;5047806;28;20214;-54
2023/03/23 08:26:51;;;;;;;1.47;0.67;;;10.10;99.90;;;;;;5032361;28;20231;-53
2023/03/23 08:29:37;;;;;;;2.30;0.80;;;10.10;99.90;;;;;;5054026;28;20279;-52
2023/03/23 08:32:27;;;;;;;1.17;0.70;;;10.10;99.90;;;;;;5055673;28;20225;-51
2023/03/23 08:35:10;;;;;;;1.97;0.73;;;10.20;99.90;;;;;;5090870;28;20202;-49
2023/03/23 08:37:58;;;;;;;2.03;0.60;;;10.20;99.90;;;;;;5053140;28;20223;-53
2023/03/23 08:40:45;;;;;;;5.07;1.60;;;10.30;99.90;;;;;;5041823;28;20211;-50
2023/03/23 08:43:31;;;;;;;4.97;1.20;;;10.30;99.90;;;;;;5060344;28;20700;-50
2023/03/23 08:46:22;;;;;;;3.53;1.10;;;10.40;99.90;;;;;;5083053;28;20229;-52
2023/03/23 08:49:06;;;;;;;2.57;1.23;;;10.50;99.90;;;;;;5052623;28;20202;-52
2023/03/23 08:52:05;;;;;;;4.13;1.13;;;10.60;99.90;;;;;;5060406;28;20195;-51
2023/03/23 08:54:56;;;;;;;3.27;1.43;;;10.70;99.90;;;;;;5052136;28;20210;-51
2023/03/23 08:57:47;;;;;;;2.60;1.47;;;10.80;99.90;;;;;;5054566;28;20230;-51
2023/03/23 09:00:27;;;;;;;1.40;1.30;;;10.90;99.90;;;;;;5055049;28;20307;-52
2023/03/23 09:03:15;;;;;;;8.67;2.13;;;11.00;99.90;;;;;;5053324;28;20206;-53
2023/03/23 09:06:01;;;;;;;3.27;1.60;;;11.00;99.90;;;;;;5087871;28;20206;-52
2023/03/23 09:08:38;;;;;;;3.30;1.33;;;11.10;99.90;;;;;;5058234;28;20300;-52
2023/03/23 09:11:08;;;;;;;7.30;2.10;;;11.10;99.90;;;;;;5045379;28;20217;-53
2023/03/23 09:13:35;;;;;;;4.67;2.23;;;11.20;99.90;;;;;;5059115;28;20207;-51
2023/03/23 09:16:03;;;;;;;1.83;1.30;;;11.20;99.90;;;;;;5050959;28;21648;-54
2023/03/23 09:18:30;;;;;;;4.30;2.17;;;11.20;99.90;;;;;;5062690;28;20588;-51
2023/03/23 09:20:58;;;;;;;3.00;1.47;;;11.20;99.90;;;;;;5053529;28;20231;-52
2023/03/23 09:23:25;;;;;;;5.53;2.50;;;11.20;99.90;;;;;;5055417;28;20293;-54
2023/03/23 09:25:53;;;;;;;3.70;2.10;;;11.30;99.90;;;;;;5047056;28;20218;-55
2023/03/23 09:28:21;;;;;;;6.50;2.67;;;11.40;99.90;;;;;;5056458;28;20222;-54
2023/03/23 09:30:49;;;;;;;7.63;3.93;;;11.40;99.90;;;;;;5055313;28;20603;-53
2023/03/23 09:33:16;;;;;;;8.37;3.23;;;11.40;99.90;;;;;;5060830;28;20203;-55
2023/03/23 09:35:44;;;;;;;8.57;3.20;;;11.50;99.90;;;;;;5056908;28;20209;-53
2023/03/23 09:38:12;;;;;;;5.87;2.03;;;11.50;99.90;;;;;;5058871;28;20218;-50
2023/03/23 09:40:48;;;;;;;6.07;2.17;;;11.50;99.90;;;;;;5051426;28;20218;-56
2023/03/23 09:43:36;;;;;;;6.23;2.63;;;11.60;99.90;;;;;;5053853;28;20272;-54
2023/03/23 09:46:18;;;;;;;8.43;2.30;;;11.60;99.90;;;;;;5058819;28;20191;-54
2023/03/23 09:48:51;;;;;;;4.53;1.77;;;11.80;99.90;;;;;;5052941;28;20674;-51
2023/03/23 09:51:33;;;;;;;4.53;2.00;;;11.90;99.90;;;;;;5057103;28;20202;-55
2023/03/23 09:54:04;;;;;;;6.73;1.90;;;12.00;99.90;;;;;;5058698;28;20200;-53
2023/03/23 09:56:33;;;;;;;7.07;2.00;;;12.00;99.90;;;;;;5059910;28;20222;-54
2023/03/23 09:59:06;;;;;;;9.33;2.77;;;12.20;99.90;;;;;;5041564;28;20287;-52
2023/03/23 10:01:37;;;;;;;5.43;1.80;;;12.20;99.90;;;;;;5062756;28;20284;-53
2023/03/23 10:04:10;;;;;;;6.63;1.70;;;12.20;99.90;;;;;;5051379;28;20219;-54
2023/03/23 10:06:37;;;;;;;7.53;2.20;;;12.20;99.90;;;;;;5056496;28;20230;-49
2023/03/23 10:09:06;;;;;;;6.17;1.73;;;12.40;99.90;;;;;;5055082;28;20264;-54
2023/03/23 10:11:43;;;;;;;6.50;1.97;;;12.40;99.90;;;;;;5056751;28;20260;-53
2023/03/23 10:14:32;;;;;;;6.97;2.60;;;12.50;99.90;;;;;;5051292;28;20399;-52
2023/03/23 10:17:10;;;;;;;4.37;1.97;;;12.60;99.90;;;;;;5052982;28;20206;-54
2023/03/23 10:19:44;;;;;;;4.33;1.93;;;12.70;99.90;;;;;;5056329;28;20218;-51
2023/03/23 10:22:13;;;;;;;6.40;2.27;;;12.80;99.90;;;;;;5056408;28;20203;-52
2023/03/23 10:24:44;;;;;;;8.23;2.13;;;12.90;99.90;;;;;;5060176;28;20233;-50
2023/03/23 10:27:24;;;;;;;6.30;1.80;;;13.00;99.90;;;;;;5054550;28;20375;-51
2023/03/23 10:29:58;;;;;;;6.13;2.47;;;13.10;99.90;;;;;;5042289;28;20208;-52
2023/03/23 10:32:41;;;;;;;3.23;1.47;;;13.20;99.90;;;;;;5061585;28;20202;-54
2023/03/23 10:35:13;;;;;;;9.00;2.40;;;13.30;99.90;;;;;;5051556;28;20197;-53
2023/03/23 10:37:45;;;;;;;5.77;2.57;;;13.40;99.90;;;;;;5052526;28;20716;-53
2023/03/23 10:40:16;;;;;;;7.50;1.90;;;13.40;99.90;;;;;;5061546;28;20279;-51
2023/03/23 10:42:43;;;;;;;3.50;1.80;;;13.40;99.90;;;;;;5054894;28;20207;-47
2023/03/23 10:45:18;;;;;;;6.93;1.33;;;13.40;99.90;;;;;;5041362;28;20210;-50
2023/03/23 10:47:49;;;;;;;5.10;2.10;;;13.40;99.90;;;;;;5058596;28;20230;-52
2023/03/23 10:50:24;;;;;;;5.07;1.97;;;13.30;99.90;;;;;;5054831;28;20239;-52
2023/03/23 10:52:53;;;;;;;5.80;1.77;;;13.20;99.90;;;;;;5049557;28;20570;-51
2023/03/23 10:55:43;;;;;;;9.27;2.13;;;13.20;99.90;;;;;;5059665;28;20680;-51
2023/03/23 10:58:11;;;;;;;4.20;1.67;;;13.20;99.90;;;;;;5053516;28;20622;-55
2023/03/23 11:00:46;;;;;;;8.53;2.53;;;13.20;99.90;;;;;;5039782;28;20221;-54
2023/03/23 11:03:28;;;;;;;10.53;2.40;;;13.20;99.90;;;;;;5059199;28;20777;-55
2023/03/23 11:05:59;;;;;;;7.50;2.03;;;13.20;99.90;;;;;;5050292;28;20206;-56
2023/03/23 11:08:29;;;;;;;5.23;2.13;;;13.10;99.90;;;;;;5055623;28;20202;-55
2023/03/23 11:10:57;;;;;;;8.67;2.20;;;13.10;99.90;;;;;;5058449;28;21637;-55
2023/03/23 11:13:31;;;;;;;7.00;2.23;;;13.20;99.90;;;;;;5057710;28;20202;-53
2023/03/23 11:16:00;;;;;;;7.13;2.30;;;13.20;99.90;;;;;;5039738;28;22194;-55
2023/03/23 11:18:36;;;;;;;7.10;2.00;;;13.30;99.90;;;;;;5062718;28;20190;-54
2023/03/23 11:21:05;;;;;;;9.60;3.10;;;13.30;99.90;;;;;;5053145;28;21827;-55
2023/03/23 11:23:35;;;;;;;7.50;1.90;;;13.20;99.90;;;;;;5057703;28;20198;-55
2023/03/23 11:26:14;;;;;;;7.80;2.43;;;13.20;99.90;;;;;;5057364;28;20187;-52
2023/03/23 11:28:46;;;;;;;8.50;2.50;;;13.20;99.90;;;;;;5058631;28;20281;-54
2023/03/23 11:31:15;;;;;;;6.60;2.07;;;13.30;99.90;;;;;;5040757;28;20327;-54
2023/03/23 11:33:50;;;;;;;9.07;2.47;;;13.40;99.90;;;;;;5060806;28;20199;-55
2023/03/23 11:36:16;;;;;;;10.77;2.00;;;13.40;99.90;;;;;;5053323;28;20267;-55
2023/03/23 11:38:44;;;;;;;5.90;1.87;;;13.40;99.90;;;;;;5059163;28;20210;-52
2023/03/23 11:41:13;;;;;;;19.63;2.67;;;13.40;99.90;;;;;;5046493;28;20277;-54
2023/03/23 11:43:44;;;;;;;8.73;2.67;;;13.40;99.90;;;;;;5063759;28;20191;-54
2023/03/23 11:46:19;;;;;;;7.83;2.23;;;13.50;99.90;;;;;;5041588;28;20571;-53
2023/03/23 11:48:56;;;;;;;9.07;2.67;;;13.60;99.90;;;;;;5060375;28;20198;-52
2023/03/23 11:51:31;;;;;;;4.90;1.70;;;13.60;99.90;;;;;;5052791;28;20573;-50
2023/03/23 11:54:05;;;;;;;7.60;2.23;;;13.60;99.90;;;;;;5066256;28;20202;-54
2023/03/23 11:56:36;;;;;;;8.03;2.10;;;13.70;99.90;;;;;;5055868;28;20986;-53
2023/03/23 11:59:10;;;;;;;8.83;2.93;;;13.80;99.90;;;;;;5064342;28;20194;-52
2023/03/23 12:01:50;;;;;;;5.43;2.03;;;13.80;99.90;;;;;;5045384;28;20199;-55
2023/03/23 12:04:57;;;;;;;8.87;2.27;;;13.80;99.90;;;;;;5055324;28;20198;-53
2023/03/23 12:07:36;;;;;;;7.20;2.00;;;13.70;99.90;;;;;;5044579;28;20238;-52
2023/03/23 12:10:13;;;;;;;9.90;2.13;;;13.60;99.90;;;;;;5058589;28;20198;-52
2023/03/23 12:12:47;;;;;;;7.50;1.93;;;13.60;99.90;;;;;;5062646;28;20190;-52
2023/03/23 12:15:23;;;;;;;8.63;2.23;;;13.50;99.90;;;;;;5057909;28;20199;-54
2023/03/23 12:18:00;;;;;;;8.23;2.87;;;13.50;99.90;;;;;;5046791;28;20305;-51
2023/03/23 12:20:38;;;;;;;9.70;1.90;;;13.50;99.90;;;;;;5056636;28;20221;-53
2023/03/23 12:23:15;;;;;;;9.93;2.43;;;13.50;99.90;;;;;;5060487;28;20222;-53
2023/03/23 12:25:56;;;;;;;8.70;2.10;;;13.40;99.90;;;;;;5053345;28;20245;-54
2023/03/23 12:28:33;;;;;;;7.27;2.80;;;13.40;99.90;;;;;;5060468;28;20286;-54
2023/03/23 12:31:09;;;;;;;9.13;3.07;;;13.40;99.90;;;;;;5058082;28;20206;-53
2023/03/23 12:33:49;;;;;;;13.00;3.03;;;13.40;99.90;;;;;;5047265;28;20204;-55
2023/03/23 12:36:25;;;;;;;7.73;2.33;;;13.30;99.90;;;;;;5062025;28;20219;-58
2023/03/23 12:39:19;;;;;;;6.37;2.63;;;13.30;99.90;;;;;;5058225;28;20297;-49
2023/03/23 12:41:52;;;;;;;7.83;2.27;;;13.20;99.90;;;;;;5053714;28;20278;-49
2023/03/23 12:44:26;;;;;;;8.53;2.30;;;13.30;99.90;;;;;;5051662;28;20207;-49
2023/03/23 12:47:08;;;;;;;11.97;2.63;;;13.40;99.90;;;;;;5051070;28;20214;-50
2023/03/23 12:49:42;;;;;;;10.03;2.60;;;13.40;99.90;;;;;;5054880;28;20344;-52
2023/03/23 12:52:16;;;;;;;9.60;2.10;;;13.40;99.90;;;;;;5053726;28;20202;-54
2023/03/23 12:54:51;;;;;;;7.60;2.07;;;13.40;99.90;;;;;;5052879;28;20954;-50
2023/03/23 12:57:27;;;;;;;8.33;2.93;;;13.40;99.90;;;;;;5047118;28;20307;-53
2023/03/23 13:00:00;;;;;;;7.10;2.53;;;13.50;99.90;;;;;;5054129;28;20252;-53
2023/03/23 13:02:32;;;;;;;9.97;2.77;;;13.40;99.90;;;;;;5041782;28;20290;-52
2023/03/23 13:05:06;;;;;;;6.90;2.77;;;13.30;99.90;;;;;;5059593;28;20225;-55
2023/03/23 13:07:38;;;;;;;6.40;2.70;;;13.30;99.90;;;;;;5052973;28;22703;-52
2023/03/23 13:10:13;;;;;;;6.83;3.13;;;13.20;99.90;;;;;;5057689;28;20571;-51
2023/03/23 13:12:42;;;;;;;8.07;3.67;;;13.20;99.90;;;;;;5054762;28;20191;-50
2023/03/23 13:15:23;;;;;;;7.40;2.60;;;13.30;99.90;;;;;;5062961;28;20722;-49